createdAt,value
2023-02-01T00:02:01.078Z,30.17
2023-02-01T00:04:28.331Z,29.86
2023-02-01T00:06:55.526Z,30.68
2023-02-01T00:09:23.185Z,30.14
2023-02-01T00:11:50.417Z,30.43
2023-02-01T00:14:18.334Z,30.69
2023-02-01T00:16:45.484Z,30.05
2023-02-01T00:19:13.998Z,30.41
2023-02-01T00:21:41.411Z,30.20
2023-02-01T00:24:10.170Z,29.78
2023-02-01T00:26:39.006Z,29.14
2023-02-01T00:29:17.126Z,29.64
2023-02-01T00:31:45.228Z,29.48
2023-02-01T00:34:17.150Z,30.29
2023-02-01T00:36:45.103Z,30.70
2023-02-01T00:39:12.476Z,29.97
2023-02-01T00:41:39.848Z,30.44
2023-02-01T00:44:08.225Z,30.50
2023-02-01T00:46:35.797Z,30.82
2023-02-01T00:49:03.713Z,30.53
2023-02-01T00:51:31.305Z,30.49
2023-02-01T00:53:58.904Z,30.52
2023-02-01T00:56:28.678Z,30.49
2023-02-01T00:58:56.078Z,30.63
2023-02-01T01:01:24.434Z,30.23
2023-02-01T01:04:00.077Z,30.61
2023-02-01T01:06:28.905Z,30.40
2023-02-01T01:08:56.742Z,30.61
2023-02-01T01:11:25.725Z,30.38
2023-02-01T01:13:53.788Z,30.33
2023-02-01T01:16:21.544Z,30.49
2023-02-01T01:18:49.131Z,30.32
2023-02-01T01:21:17.488Z,30.57
2023-02-01T01:23:45.611Z,30.72
2023-02-01T01:26:20.336Z,30.88
2023-02-01T01:28:48.085Z,30.64
2023-02-01T01:31:16.449Z,30.55
2023-02-01T01:33:45.356Z,30.66
2023-02-01T01:36:13.237Z,30.52
2023-02-01T01:38:41.272Z,30.40
2023-02-01T01:41:09.428Z,30.47
2023-02-01T01:43:55.368Z,30.36
2023-02-01T01:46:28.605Z,30.68
2023-02-01T01:49:05.222Z,30.71
2023-02-01T01:51:37.575Z,30.54
2023-02-01T01:54:06.273Z,30.58
2023-02-01T01:56:34.867Z,30.38
2023-02-01T01:59:03.530Z,30.45
2023-02-01T02:01:31.329Z,30.50
2023-02-01T02:04:00.464Z,30.68
2023-02-01T02:06:38.873Z,30.52
2023-02-01T02:09:07.143Z,30.45
2023-02-01T02:11:34.718Z,30.61
2023-02-01T02:14:02.578Z,30.38
2023-02-01T02:16:48.372Z,30.46
2023-02-01T02:19:30.915Z,30.58
2023-02-01T02:22:11.025Z,30.80
2023-02-01T02:24:54.815Z,30.44
2023-02-01T02:27:32.215Z,30.18
2023-02-01T02:30:18.465Z,30.18
2023-02-01T02:33:05.952Z,30.17
2023-02-01T02:35:48.378Z,30.47
2023-02-01T02:38:33.884Z,30.35
2023-02-01T02:41:39.997Z,30.52
2023-02-01T02:44:31.003Z,30.38
2023-02-01T02:47:20.132Z,30.39
2023-02-01T02:50:26.355Z,30.36
2023-02-01T02:53:16.657Z,30.35
2023-02-01T02:55:44.729Z,30.18
2023-02-01T02:58:31.694Z,30.36
2023-02-01T03:01:18.284Z,30.32
2023-02-01T03:04:04.288Z,30.17
2023-02-01T03:06:33.615Z,30.58
2023-02-01T03:09:03.070Z,30.48
2023-02-01T03:11:52.184Z,30.49
2023-02-01T03:14:21.430Z,30.37
2023-02-01T03:16:52.977Z,30.67
2023-02-01T03:19:20.403Z,30.46
2023-02-01T03:21:57.622Z,30.37
2023-02-01T03:24:34.277Z,30.28
2023-02-01T03:27:06.859Z,30.49
2023-02-01T03:30:03.638Z,30.47
2023-02-01T03:32:51.031Z,30.60
2023-02-01T03:35:19.141Z,30.49
2023-02-01T03:37:46.847Z,30.59
2023-02-01T03:40:17.748Z,30.40
2023-02-01T03:42:49.095Z,30.59
2023-02-01T03:45:19.445Z,30.54
2023-02-01T03:47:49.795Z,30.71
2023-02-01T03:50:24.156Z,30.43
2023-02-01T03:53:02.433Z,30.59
2023-02-01T03:55:31.086Z,30.43
2023-02-01T03:58:02.483Z,30.47
2023-02-01T04:00:29.938Z,30.55
2023-02-01T04:02:58.695Z,30.25
2023-02-01T04:05:26.003Z,30.37
2023-02-01T04:07:58.384Z,30.33
2023-02-01T04:10:26.068Z,30.38
2023-02-01T04:12:53.416Z,30.29
2023-02-01T04:15:20.806Z,30.65
2023-02-01T04:17:48.019Z,30.44
2023-02-01T04:20:17.511Z,30.50
2023-02-01T04:22:44.893Z,30.48
2023-02-01T04:25:12.223Z,30.24
2023-02-01T04:30:05.861Z,30.34
2023-02-01T04:32:33.180Z,30.46
2023-02-01T04:35:00.355Z,30.29
2023-02-01T04:37:27.640Z,30.33
2023-02-01T04:39:56.988Z,30.48
2023-02-01T04:42:24.372Z,30.44
2023-02-01T04:44:51.850Z,30.50
2023-02-01T04:47:19.076Z,30.33
2023-02-01T04:49:46.266Z,30.44
2023-02-01T04:52:13.705Z,30.67
2023-02-01T04:54:40.951Z,30.52
2023-02-01T04:57:08.218Z,30.48
2023-02-01T04:59:35.504Z,30.30
2023-02-01T05:02:02.857Z,30.53
2023-02-01T05:04:30.121Z,30.49
2023-02-01T05:06:57.444Z,30.39
2023-02-01T05:09:24.673Z,30.86
2023-02-01T05:12:10.650Z,30.60
2023-02-01T05:14:37.977Z,30.38
2023-02-01T05:17:05.171Z,30.50
2023-02-01T05:19:32.477Z,30.42
2023-02-01T05:21:59.782Z,30.32
2023-02-01T05:24:28.132Z,30.58
2023-02-01T05:26:55.496Z,30.44
2023-02-01T05:29:22.880Z,30.35
2023-02-01T05:31:50.244Z,30.42
2023-02-01T05:34:17.705Z,30.52
2023-02-01T05:36:44.948Z,30.69
2023-02-01T05:39:12.338Z,30.12
2023-02-01T05:41:39.676Z,30.41
2023-02-01T05:44:08.374Z,30.64
2023-02-01T05:46:36.154Z,30.38
2023-02-01T05:49:04.058Z,30.44
2023-02-01T05:51:31.475Z,30.59
2023-02-01T05:53:58.774Z,30.59
2023-02-01T05:56:26.061Z,30.71
2023-02-01T05:58:53.399Z,30.63
2023-02-01T06:01:20.629Z,30.34
2023-02-01T06:03:47.965Z,30.42
2023-02-01T06:06:15.203Z,30.30
2023-02-01T06:08:42.516Z,30.41
2023-02-01T06:11:10.959Z,30.39
2023-02-01T06:13:41.043Z,30.68
2023-02-01T06:16:08.676Z,30.48
2023-02-01T06:18:36.509Z,30.33
2023-02-01T06:21:03.849Z,30.62
2023-02-01T06:23:31.561Z,30.50
2023-02-01T06:26:00.668Z,30.63
2023-02-01T06:28:29.376Z,30.57
2023-02-01T06:30:56.833Z,30.39
2023-02-01T06:33:24.986Z,30.43
2023-02-01T06:35:59.571Z,30.68
2023-02-01T06:38:27.371Z,30.80
2023-02-01T06:40:55.657Z,30.42
2023-02-01T06:43:23.662Z,30.40
2023-02-01T06:45:51.395Z,30.53
2023-02-01T06:48:18.895Z,30.45
2023-02-01T06:50:46.164Z,30.04
2023-02-01T06:53:13.765Z,30.19
2023-02-01T06:55:40.954Z,30.00
2023-02-01T06:58:08.274Z,30.09
2023-02-01T07:00:36.250Z,30.09
2023-02-01T07:03:03.620Z,30.31
2023-02-01T07:05:30.818Z,30.54
2023-02-01T07:07:58.251Z,30.33
2023-02-01T07:10:25.629Z,29.99
2023-02-01T07:12:52.893Z,30.20
2023-02-01T07:15:20.120Z,30.49
2023-02-01T07:17:48.550Z,30.30
2023-02-01T07:20:16.406Z,30.89
2023-02-01T07:22:43.688Z,30.64
2023-02-01T07:25:10.976Z,30.78
2023-02-01T07:27:38.649Z,30.51
2023-02-01T07:30:06.433Z,30.45
2023-02-01T07:32:33.765Z,30.43
2023-02-01T07:35:01.043Z,30.23
2023-02-01T07:37:28.448Z,30.44
2023-02-01T07:39:55.686Z,29.81
2023-02-01T07:42:22.968Z,29.92
2023-02-01T07:44:50.176Z,30.35
2023-02-01T07:47:17.475Z,30.63
2023-02-01T07:49:44.650Z,30.32
2023-02-01T07:52:14.201Z,30.57
2023-02-01T07:54:41.593Z,30.48
2023-02-01T07:57:09.859Z,30.05
2023-02-01T07:59:57.175Z,29.95
2023-02-01T08:02:24.602Z,30.08
2023-02-01T08:04:51.846Z,30.09
2023-02-01T08:07:19.182Z,29.98
2023-02-01T08:09:46.373Z,29.75
2023-02-01T08:12:13.608Z,29.83
2023-02-01T08:14:41.987Z,30.06
2023-02-01T08:17:09.395Z,29.98
2023-02-01T08:19:36.664Z,29.99
2023-02-01T08:22:07.826Z,29.83
2023-02-01T08:24:35.232Z,30.23
2023-02-01T08:27:03.326Z,30.15
2023-02-01T08:29:30.677Z,29.87
2023-02-01T08:31:58.086Z,29.87
2023-02-01T08:34:25.533Z,29.51
2023-02-01T08:36:58.403Z,29.33
2023-02-01T08:39:26.189Z,29.73
2023-02-01T08:42:11.917Z,29.87
2023-02-01T08:44:39.877Z,30.33
2023-02-01T08:47:07.117Z,29.59
2023-02-01T08:49:34.450Z,30.07
2023-02-01T08:52:07.202Z,29.99
2023-02-01T08:54:38.157Z,29.92
2023-02-01T08:57:05.348Z,30.37
2023-02-01T08:59:32.611Z,30.44
2023-02-01T09:02:00.129Z,30.32
2023-02-01T09:04:27.542Z,30.52
2023-02-01T09:06:56.675Z,30.52
2023-02-01T09:09:24.532Z,30.40
2023-02-01T09:11:51.733Z,30.70
2023-02-01T09:14:19.333Z,30.55
2023-02-01T09:16:46.549Z,30.46
2023-02-01T09:19:25.371Z,29.89
2023-02-01T09:21:53.510Z,30.42
2023-02-01T09:24:20.727Z,29.84
2023-02-01T09:26:50.527Z,30.00
2023-02-01T09:29:18.063Z,29.62
2023-02-01T09:31:57.410Z,30.17
2023-02-01T09:34:30.695Z,29.49
2023-02-01T09:36:57.942Z,29.14
2023-02-01T09:39:25.247Z,29.12
2023-02-01T09:41:55.545Z,29.11
2023-02-01T09:44:43.948Z,29.58
2023-02-01T09:47:13.412Z,29.51
2023-02-01T09:49:47.368Z,29.71
2023-02-01T09:52:16.021Z,29.58
2023-02-01T09:54:54.489Z,30.44
2023-02-01T09:57:27.866Z,29.81
2023-02-01T10:00:01.663Z,29.65
2023-02-01T10:02:31.477Z,29.78
2023-02-01T10:05:00.597Z,30.31
2023-02-01T10:07:57.161Z,29.56
2023-02-01T10:10:29.961Z,29.58
2023-02-01T10:13:10.340Z,29.25
2023-02-01T10:15:50.265Z,29.38
2023-02-01T10:18:35.492Z,29.52
2023-02-01T10:21:11.953Z,29.29
2023-02-01T10:23:42.216Z,28.83
2023-02-01T10:26:18.536Z,29.22
2023-02-01T10:28:49.171Z,29.54
2023-02-01T10:31:17.667Z,29.16
2023-02-01T10:33:49.903Z,28.82
2023-02-01T10:36:22.451Z,28.66
2023-02-01T10:38:49.895Z,28.67
2023-02-01T10:41:19.180Z,28.19
2023-02-01T10:43:49.379Z,28.84
2023-02-01T10:46:17.665Z,29.20
2023-02-01T10:48:44.981Z,28.79
2023-02-01T10:51:25.733Z,29.16
2023-02-01T10:53:59.348Z,29.22
2023-02-01T10:56:28.027Z,28.88
2023-02-01T10:59:15.441Z,28.49
2023-02-01T11:01:43.434Z,29.30
2023-02-01T11:04:15.615Z,29.71
2023-02-01T11:06:44.811Z,29.52
2023-02-01T11:09:21.646Z,30.05
2023-02-01T11:11:50.092Z,30.23
2023-02-01T11:14:37.569Z,30.32
2023-02-01T11:17:18.878Z,30.48
2023-02-01T11:19:46.654Z,29.85
2023-02-01T11:22:14.892Z,30.44
2023-02-01T11:24:45.874Z,29.99
2023-02-01T11:27:26.579Z,29.75
2023-02-01T11:29:59.734Z,30.05
2023-02-01T11:32:27.788Z,30.39
2023-02-01T11:35:00.691Z,29.81
2023-02-01T11:37:39.201Z,29.89
2023-02-01T11:40:18.765Z,30.47
2023-02-01T11:43:00.118Z,30.42
2023-02-01T11:45:27.366Z,30.45
2023-02-01T11:47:55.873Z,30.38
2023-02-01T11:50:27.587Z,30.46
2023-02-01T11:53:33.241Z,30.43
2023-02-01T11:56:19.007Z,30.67
2023-02-01T11:58:51.969Z,30.39
2023-02-01T12:01:19.532Z,30.09
2023-02-01T12:03:47.024Z,30.21
2023-02-01T12:06:17.354Z,30.05
2023-02-01T12:08:46.079Z,30.50
2023-02-01T12:11:14.234Z,30.29
2023-02-01T12:13:41.598Z,30.88
2023-02-01T12:16:09.656Z,30.63
2023-02-01T12:18:46.448Z,30.57
2023-02-01T12:21:17.153Z,30.64
2023-02-01T12:24:05.293Z,30.59
2023-02-01T12:26:51.363Z,30.64
2023-02-01T12:29:51.551Z,30.48
2023-02-01T12:32:28.451Z,30.28
2023-02-01T12:34:55.899Z,29.87
2023-02-01T12:37:30.751Z,30.19
2023-02-01T12:40:17.291Z,30.55
2023-02-01T12:42:49.816Z,30.48
2023-02-01T12:45:30.383Z,30.54
2023-02-01T12:48:03.979Z,30.43
2023-02-01T12:50:38.169Z,30.19
2023-02-01T12:53:21.669Z,30.74
2023-02-01T12:55:52.200Z,30.65
2023-02-01T12:58:28.188Z,30.62
2023-02-01T13:00:59.963Z,30.61
2023-02-01T13:03:43.752Z,30.59
2023-02-01T13:06:23.093Z,30.82
2023-02-01T13:09:11.351Z,30.61
2023-02-01T13:11:40.183Z,30.65
2023-02-01T13:14:26.439Z,30.64
2023-02-01T13:16:58.993Z,30.34
2023-02-01T13:19:32.495Z,30.60
2023-02-01T13:22:20.328Z,30.62
2023-02-01T13:24:53.799Z,30.42
2023-02-01T13:27:21.399Z,30.58
2023-02-01T13:30:01.029Z,30.79
2023-02-01T13:32:53.097Z,30.37
2023-02-01T13:35:29.899Z,29.84
2023-02-01T13:38:15.895Z,30.51
2023-02-01T13:40:43.425Z,31.05
2023-02-01T13:43:16.078Z,31.34
2023-02-01T13:45:52.134Z,31.45
2023-02-01T13:48:25.583Z,31.76
2023-02-01T13:50:57.392Z,31.81
2023-02-01T13:53:28.160Z,31.76
2023-02-01T13:56:01.640Z,31.60
2023-02-01T13:58:34.702Z,31.63
2023-02-01T14:01:21.026Z,31.72
2023-02-01T14:03:48.425Z,31.58
2023-02-01T14:06:35.971Z,31.57
2023-02-01T14:09:06.461Z,31.31
2023-02-01T14:11:36.733Z,31.63
2023-02-01T14:14:16.445Z,31.81
2023-02-01T14:16:44.576Z,31.40
2023-02-01T14:19:32.658Z,31.58
2023-02-01T14:22:05.164Z,31.60
2023-02-01T14:24:33.957Z,31.25
2023-02-01T14:27:18.387Z,31.11
2023-02-01T14:29:56.137Z,31.09
2023-02-01T14:32:26.712Z,31.02
2023-02-01T14:34:57.338Z,31.13
2023-02-01T14:37:29.773Z,31.24
2023-02-01T14:40:02.107Z,31.37
2023-02-01T14:42:32.871Z,31.06
2023-02-01T14:45:19.592Z,31.14
2023-02-01T14:47:49.028Z,31.02
2023-02-01T14:50:16.590Z,31.11
2023-02-01T14:52:48.326Z,31.19
2023-02-01T14:55:31.188Z,30.91
2023-02-01T14:58:11.991Z,31.24
2023-02-01T15:00:47.938Z,31.00
2023-02-01T15:03:23.077Z,31.36
2023-02-01T15:05:58.281Z,30.94
2023-02-01T15:08:28.503Z,31.09
2023-02-01T15:10:56.729Z,31.25
2023-02-01T15:13:26.166Z,31.10
2023-02-01T15:16:13.390Z,30.96
2023-02-01T15:18:41.395Z,30.76
2023-02-01T15:21:28.512Z,31.19
2023-02-01T15:24:17.179Z,31.07
2023-02-01T15:26:44.488Z,30.74
2023-02-01T15:29:13.239Z,30.75
2023-02-01T15:31:48.868Z,30.81
2023-02-01T15:34:16.241Z,30.95
2023-02-01T15:37:00.339Z,30.73
2023-02-01T15:39:32.490Z,30.97
2023-02-01T15:42:03.450Z,31.17
2023-02-01T15:44:31.021Z,30.98
2023-02-01T15:46:59.003Z,30.86
2023-02-01T15:49:28.714Z,30.84
2023-02-01T15:51:56.701Z,30.92
2023-02-01T15:54:26.402Z,30.82
2023-02-01T15:56:55.501Z,30.86
2023-02-01T15:59:25.788Z,31.00
2023-02-01T16:01:53.280Z,30.78
2023-02-01T16:04:21.960Z,30.77
2023-02-01T16:06:51.223Z,30.73
2023-02-01T16:09:20.176Z,30.72
2023-02-01T16:11:50.191Z,30.72
2023-02-01T16:14:17.835Z,30.89
2023-02-01T16:16:45.207Z,30.70
2023-02-01T16:19:12.472Z,30.57
2023-02-01T16:21:39.840Z,30.49
2023-02-01T16:24:07.378Z,30.83
2023-02-01T16:26:35.305Z,30.75
2023-02-01T16:29:04.169Z,30.44
2023-02-01T16:31:32.716Z,30.76
2023-02-01T16:34:00.130Z,30.79
2023-02-01T16:36:33.436Z,30.67
2023-02-01T16:39:01.442Z,30.68
2023-02-01T16:41:29.075Z,30.88
2023-02-01T16:43:56.539Z,30.76
2023-02-01T16:46:26.623Z,30.63
2023-02-01T16:48:58.675Z,30.63
2023-02-01T16:51:33.092Z,30.88
2023-02-01T16:54:01.167Z,30.78
2023-02-01T16:56:31.055Z,30.47
2023-02-01T16:58:58.451Z,30.40
2023-02-01T17:01:25.974Z,30.54
2023-02-01T17:03:53.653Z,30.61
2023-02-01T17:06:22.989Z,30.74
2023-02-01T17:08:55.185Z,30.50
2023-02-01T17:11:22.532Z,30.65
2023-02-01T17:13:49.782Z,30.55
2023-02-01T17:16:22.669Z,30.35
2023-02-01T17:19:00.651Z,30.69
2023-02-01T17:21:31.465Z,30.99
2023-02-01T17:24:00.159Z,31.09
2023-02-01T17:26:28.884Z,30.95
2023-02-01T17:28:56.245Z,30.98
2023-02-01T17:31:24.360Z,31.20
2023-02-01T17:33:51.790Z,31.16
2023-02-01T17:36:19.184Z,31.17
2023-02-01T17:38:53.644Z,31.20
2023-02-01T17:41:27.435Z,31.21
2023-02-01T17:43:54.789Z,31.09
2023-02-01T17:46:27.279Z,30.92
2023-02-01T17:48:55.055Z,30.99
2023-02-01T17:51:27.454Z,30.81
2023-02-01T17:53:55.099Z,30.71
2023-02-01T17:56:23.451Z,30.82
2023-02-01T17:58:51.055Z,30.59
2023-02-01T18:01:19.707Z,30.76
2023-02-01T18:03:47.153Z,30.72
2023-02-01T18:06:18.632Z,30.66
2023-02-01T18:08:46.101Z,30.53
2023-02-01T18:11:20.588Z,30.38
2023-02-01T18:13:48.692Z,30.62
2023-02-01T18:16:22.355Z,30.44
2023-02-01T18:18:50.168Z,30.49
2023-02-01T18:21:18.456Z,30.44
2023-02-01T18:23:46.147Z,30.49
2023-02-01T18:26:13.987Z,30.36
2023-02-01T18:28:42.588Z,30.54
2023-02-01T18:31:26.339Z,30.52
2023-02-01T18:33:55.594Z,30.30
2023-02-01T18:36:23.095Z,30.47
2023-02-01T18:38:50.918Z,30.49
2023-02-01T18:41:21.765Z,30.32
2023-02-01T18:43:49.563Z,30.36
2023-02-01T18:46:17.215Z,30.40
2023-02-01T18:48:44.575Z,30.40
2023-02-01T18:51:13.311Z,30.36
2023-02-01T18:53:40.673Z,30.42
2023-02-01T18:56:10.937Z,30.15
2023-02-01T18:58:38.302Z,30.19
2023-02-01T19:01:08.983Z,30.37
2023-02-01T19:03:42.325Z,30.12
2023-02-01T19:06:16.514Z,30.19
2023-02-01T19:08:47.307Z,29.98
2023-02-01T19:11:14.768Z,30.06
2023-02-01T19:13:42.044Z,30.08
2023-02-01T19:16:10.479Z,30.06
2023-02-01T19:18:38.197Z,30.18
2023-02-01T19:21:06.623Z,30.23
2023-02-01T19:23:34.063Z,30.48
2023-02-01T19:26:01.699Z,30.39
2023-02-01T19:28:29.082Z,30.18
2023-02-01T19:31:03.388Z,30.12
2023-02-01T19:33:31.232Z,30.53
2023-02-01T19:36:05.349Z,30.40
2023-02-01T19:38:33.521Z,30.53
2023-02-01T19:41:00.843Z,30.50
2023-02-01T19:43:28.342Z,30.34
2023-02-01T19:45:56.166Z,30.19
2023-02-01T19:48:23.477Z,30.22
2023-02-01T19:50:50.731Z,30.42
2023-02-01T19:53:19.444Z,30.95
2023-02-01T19:55:47.002Z,30.70
2023-02-01T19:58:14.762Z,30.63
2023-02-01T20:00:41.228Z,30.45
2023-02-01T20:03:08.689Z,30.43
2023-02-01T20:05:38.782Z,30.60
2023-02-01T20:08:06.207Z,30.41
2023-02-01T20:10:35.308Z,30.43
2023-02-01T20:13:02.576Z,30.38
2023-02-01T20:15:32.511Z,30.28
2023-02-01T20:17:59.875Z,30.32
2023-02-01T20:20:28.668Z,30.49
2023-02-01T20:22:56.020Z,30.21
2023-02-01T20:25:23.486Z,30.11
2023-02-01T20:27:52.173Z,30.20
2023-02-01T20:30:26.027Z,29.96
2023-02-01T20:32:53.427Z,30.04
2023-02-01T20:35:20.659Z,30.11
2023-02-01T20:37:52.120Z,30.18
2023-02-01T20:40:19.525Z,30.30
2023-02-01T20:42:47.261Z,30.17
2023-02-01T20:45:14.690Z,30.47
2023-02-01T20:47:43.411Z,30.60
2023-02-01T20:50:11.106Z,30.42
2023-02-01T20:52:38.391Z,30.00
2023-02-01T20:55:05.923Z,30.06
2023-02-01T20:57:33.256Z,30.10
2023-02-01T21:00:01.742Z,30.18
2023-02-01T21:02:29.021Z,30.41
2023-02-01T21:04:58.972Z,30.21
2023-02-01T21:07:26.801Z,30.18
2023-02-01T21:09:56.249Z,30.15
2023-02-01T21:12:23.522Z,30.28
2023-02-01T21:14:50.749Z,30.23
2023-02-01T21:17:22.268Z,30.34
2023-02-01T21:19:50.817Z,30.21
2023-02-01T21:22:18.071Z,30.44
2023-02-01T21:24:45.680Z,30.47
2023-02-01T21:27:13.421Z,30.35
2023-02-01T21:29:40.776Z,30.31
2023-02-01T21:32:08.963Z,30.32
2023-02-01T21:34:39.432Z,30.19
2023-02-01T21:37:06.896Z,30.13
2023-02-01T21:39:34.144Z,30.33
2023-02-01T21:42:21.925Z,30.16
2023-02-01T21:44:49.430Z,30.22
2023-02-01T21:47:17.895Z,30.06
2023-02-01T21:49:45.966Z,30.05
2023-02-01T21:52:13.716Z,30.14
2023-02-01T21:54:41.171Z,30.12
2023-02-01T21:57:14.842Z,30.31
2023-02-01T21:59:42.959Z,30.19
2023-02-01T22:02:12.453Z,30.28
2023-02-01T22:04:39.721Z,30.10
2023-02-01T22:07:07.535Z,30.01
2023-02-01T22:09:34.821Z,30.14
2023-02-01T22:12:02.235Z,30.09
2023-02-01T22:14:29.732Z,30.02
2023-02-01T22:16:56.991Z,29.96
2023-02-01T22:19:24.288Z,29.90
2023-02-01T22:21:51.479Z,30.09
2023-02-01T22:24:21.326Z,30.08
2023-02-01T22:26:49.208Z,30.31
2023-02-01T22:29:19.294Z,30.20
2023-02-01T22:31:47.094Z,30.18
2023-02-01T22:34:15.644Z,30.49
2023-02-01T22:36:43.056Z,30.24
2023-02-01T22:39:10.404Z,30.14
2023-02-01T22:41:37.975Z,29.99
2023-02-01T22:44:05.323Z,30.12
2023-02-01T22:46:33.348Z,30.14
2023-02-01T22:49:00.622Z,30.14
2023-02-01T22:51:29.165Z,30.35
2023-02-01T22:53:57.782Z,30.24
2023-02-01T22:56:33.327Z,30.38
2023-02-01T22:59:02.737Z,30.29
2023-02-01T23:01:30.261Z,30.27
2023-02-01T23:03:58.634Z,30.14
2023-02-01T23:06:26.875Z,30.08
2023-02-01T23:08:55.046Z,30.09
2023-02-01T23:11:22.645Z,30.28
2023-02-01T23:13:50.411Z,30.25
2023-02-01T23:16:17.814Z,30.20
2023-02-01T23:18:45.045Z,30.16
2023-02-01T23:21:13.861Z,30.10
2023-02-01T23:23:45.305Z,30.11
2023-02-01T23:26:12.578Z,30.15
2023-02-01T23:28:39.841Z,30.17
2023-02-01T23:31:09.435Z,30.30
2023-02-01T23:33:37.276Z,30.31
2023-02-01T23:36:05.926Z,30.34
2023-02-01T23:38:33.534Z,30.22
2023-02-01T23:41:01.816Z,30.18
2023-02-01T23:43:48.049Z,30.27
2023-02-01T23:46:18.427Z,30.42
2023-02-01T23:48:46.342Z,30.60
2023-02-01T23:51:14.076Z,30.26
2023-02-01T23:53:41.421Z,30.02
2023-02-01T23:56:08.627Z,30.16
2023-02-01T23:58:39.959Z,30.09
